Suwanee, Florida
Current Conditions -  °F | °C
As of 4:53 AM on Wednesday 22 Oct 2014 (Local Time) from KGNV Reporting Station
Clear Clear  
Wind Chill: 59°   Ceiling: Unl
Heat Index: 59°   Visibility: 10mi
Dew Point: 56°   Wind: 3mph
Humidity: 90%   Direction: 330°NNW
Pressure: 29.95"   Gusts: NA
Location:  29.6251°N, 82.7909°W
Report Text: KGNV 220853Z AUTO 33003KT 10SM CLR 15/13 A2995 RMK AO2 SLP141 T01500133 55002
Loading
Personal Weather Stations






























Interactive Weather Map
Tropical Storm Tracking
New forecast layout! Learn more

10-Day Weather Forecast

Advertisements
Track Severe Weather on mobile